sensor_id;sensor_type;location;lat;lon;timestamp;pressure;altitude;pressure_sealevel;temperature;humidity
44075;BME280;60448;44.956;7.660;2023-06-14T00:00:00;98230;;;26.5;62.1
44075;BME280;60448;44.956;7.660;2023-06-14T00:05:00;98230;;;26.5;62.1
44075;BME280;60448;44.956;7.660;2023-06-14T00:10:00;98220;;;26.5;62.1
44075;BME280;60448;44.956;7.660;2023-06-14T00:15:00;98220;;;26.5;62.1
44075;BME280;60448;44.956;7.660;2023-06-14T00:20:01;98220;;;26.7;61.8
44075;BME280;60448;44.956;7.660;2023-06-14T00:25:00;98220;;;26.5;62.0
44075;BME280;60448;44.956;7.660;2023-06-14T00:30:00;98220;;;26.5;62.0
44075;BME280;60448;44.956;7.660;2023-06-14T00:35:00;98220;;;26.5;62.0
44075;BME280;60448;44.956;7.660;2023-06-14T00:40:00;98220;;;26.5;62.0
44075;BME280;60448;44.956;7.660;2023-06-14T00:45:00;98220;;;26.5;62.0
44075;BME280;60448;44.956;7.660;2023-06-14T00:50:00;98220;;;26.5;62.0
44075;BME280;60448;44.956;7.660;2023-06-14T00:55:00;98220;;;26.5;62.0
44075;BME280;60448;44.956;7.660;2023-06-14T01:00:00;98220;;;26.5;62.0
44075;BME280;60448;44.956;7.660;2023-06-14T01:05:00;98220;;;26.5;62.0
44075;BME280;60448;44.956;7.660;2023-06-14T01:10:04;98220;;;26.5;62.0
44075;BME280;60448;44.956;7.660;2023-06-14T01:15:00;98220;;;26.5;62.0
44075;BME280;60448;44.956;7.660;2023-06-14T01:20:02;98220;;;26.5;62.0
44075;BME280;60448;44.956;7.660;2023-06-14T01:25:00;98220;;;26.5;62.0
44075;BME280;60448;44.956;7.660;2023-06-14T01:30:00;98220;;;26.5;62.0
44075;BME280;60448;44.956;7.660;2023-06-14T01:35:00;98220;;;26.5;62.0
44075;BME280;60448;44.956;7.660;2023-06-14T01:40:01;98220;;;26.5;62.0
44075;BME280;60448;44.956;7.660;2023-06-14T01:45:00;98220;;;26.5;62.0
44075;BME280;60448;44.956;7.660;2023-06-14T01:50:01;98220;;;26.5;62.0
44075;BME280;60448;44.956;7.660;2023-06-14T01:55:00;98220;;;26.5;62.0
44075;BME280;60448;44.956;7.660;2023-06-14T02:00:00;98220;;;26.5;62.0
44075;BME280;60448;44.956;7.660;2023-06-14T02:05:00;98220;;;26.5;62.0
44075;BME280;60448;44.956;7.660;2023-06-14T02:10:00;98220;;;26.5;62.0
44075;BME280;60448;44.956;7.660;2023-06-14T02:15:00;98220;;;26.5;62.0
44075;BME280;60448;44.956;7.660;2023-06-14T02:20:00;98220;;;26.5;62.0
44075;BME280;60448;44.956;7.660;2023-06-14T02:25:00;98220;;;26.5;62.0
44075;BME280;60448;44.956;7.660;2023-06-14T02:30:00;98220;;;26.5;62.0
44075;BME280;60448;44.956;7.660;2023-06-14T02:35:00;98220;;;26.5;62.0
44075;BME280;60448;44.956;7.660;2023-06-14T02:40:00;98220;;;26.5;62.0
44075;BME280;60448;44.956;7.660;2023-06-14T02:45:00;98220;;;26.5;62.0
44075;BME280;60448;44.956;7.660;2023-06-14T02:50:00;98220;;;26.5;62.0
44075;BME280;60448;44.956;7.660;2023-06-14T02:55:00;98220;;;26.5;62.0
44075;BME280;60448;44.956;7.660;2023-06-14T03:00:00;98220;;;26.5;62.0
44075;BME280;60448;44.956;7.660;2023-06-14T03:05:00;98220;;;26.5;62.0
44075;BME280;60448;44.956;7.660;2023-06-14T03:10:00;98220;;;26.5;62.0
44075;BME280;60448;44.956;7.660;2023-06-14T03:15:00;98220;;;26.5;62.0
44075;BME280;60448;44.956;7.660;2023-06-14T03:20:00;98220;;;26.5;62.0
44075;BME280;60448;44.956;7.660;2023-06-14T03:25:00;98220;;;26.5;62.0
44075;BME280;60448;44.956;7.660;2023-06-14T03:30:00;98220;;;26.5;62.0
44075;BME280;60448;44.956;7.660;2023-06-14T03:35:00;98220;;;26.5;62.0
44075;BME280;60448;44.956;7.660;2023-06-14T03:40:00;98220;;;26.5;62.0
44075;BME280;60448;44.956;7.660;2023-06-14T03:45:00;98220;;;26.5;62.0
44075;BME280;60448;44.956;7.660;2023-06-14T03:50:01;98220;;;26.5;62.0
44075;BME280;60448;44.956;7.660;2023-06-14T03:55:00;98220;;;26.5;62.0
44075;BME280;60448;44.956;7.660;2023-06-14T04:00:00;98220;;;26.5;62.0
44075;BME280;60448;44.956;7.660;2023-06-14T04:05:00;98220;;;26.5;62.0
44075;BME280;60448;44.956;7.660;2023-06-14T04:10:00;98220;;;26.5;62.0
44075;BME280;60448;44.956;7.660;2023-06-14T04:15:00;98220;;;26.5;62.0
44075;BME280;60448;44.956;7.660;2023-06-14T04:20:00;98220;;;26.5;62.0
44075;BME280;60448;44.956;7.660;2023-06-14T04:25:00;98220;;;26.5;62.0
44075;BME280;60448;44.956;7.660;2023-06-14T04:30:00;98220;;;26.5;62.0
44075;BME280;60448;44.956;7.660;2023-06-14T04:35:00;98220;;;26.5;62.0
44075;BME280;60448;44.956;7.660;2023-06-14T04:40:00;98220;;;26.5;62.0
44075;BME280;60448;44.956;7.660;2023-06-14T04:45:00;98220;;;26.5;62.0
44075;BME280;60448;44.956;7.660;2023-06-14T04:50:00;98220;;;26.5;62.0
44075;BME280;60448;44.956;7.660;2023-06-14T04:55:00;98220;;;26.5;62.0
44075;BME280;60448;44.956;7.660;2023-06-14T05:00:00;98220;;;26.5;62.0
44075;BME280;60448;44.956;7.660;2023-06-14T05:05:00;98220;;;26.5;62.0
44075;BME280;60448;44.956;7.660;2023-06-14T05:10:00;98220;;;26.5;62.0
44075;BME280;60448;44.956;7.660;2023-06-14T05:15:00;98220;;;26.5;62.0
44075;BME280;60448;44.956;7.660;2023-06-14T05:20:00;98220;;;26.5;62.0
44075;BME280;60448;44.956;7.660;2023-06-14T05:25:00;98220;;;26.5;62.0
44075;BME280;60448;44.956;7.660;2023-06-14T05:30:00;98220;;;26.5;62.0
44075;BME280;60448;44.956;7.660;2023-06-14T05:35:01;98220;;;26.5;62.0
44075;BME280;60448;44.956;7.660;2023-06-14T05:40:00;98220;;;26.5;62.0
44075;BME280;60448;44.956;7.660;2023-06-14T05:45:00;98220;;;26.5;62.0
44075;BME280;60448;44.956;7.660;2023-06-14T05:50:00;98220;;;26.5;62.0
44075;BME280;60448;44.956;7.660;2023-06-14T05:55:00;98220;;;26.5;62.0
44075;BME280;60448;44.956;7.660;2023-06-14T06:00:00;98220;;;26.5;62.0
44075;BME280;60448;44.956;7.660;2023-06-14T06:05:00;98220;;;26.5;62.0
44075;BME280;60448;44.956;7.660;2023-06-14T06:10:00;98220;;;26.5;62.0
44075;BME280;60448;44.956;7.660;2023-06-14T06:15:00;98220;;;26.5;62.0
44075;BME280;60448;44.956;7.660;2023-06-14T06:20:00;98220;;;26.5;62.0
44075;BME280;60448;44.956;7.660;2023-06-14T06:25:00;98220;;;26.5;62.0
44075;BME280;60448;44.956;7.660;2023-06-14T06:30:00;98220;;;26.5;62.0
44075;BME280;60448;44.956;7.660;2023-06-14T06:35:00;98220;;;26.5;62.0
44075;BME280;60448;44.956;7.660;2023-06-14T06:40:00;98220;;;26.5;62.0
44075;BME280;60448;44.956;7.660;2023-06-14T06:45:00;98220;;;26.5;62.0
44075;BME280;60448;44.956;7.660;2023-06-14T06:50:00;98220;;;26.5;62.0
44075;BME280;60448;44.956;7.660;2023-06-14T06:55:00;98220;;;26.5;62.0
44075;BME280;60448;44.956;7.660;2023-06-14T07:00:00;98220;;;26.5;62.0
44075;BME280;60448;44.956;7.660;2023-06-14T07:05:00;98220;;;26.5;62.0
44075;BME280;60448;44.956;7.660;2023-06-14T07:10:00;98220;;;26.5;62.0
44075;BME280;60448;44.956;7.660;2023-06-14T07:15:00;98220;;;26.5;62.0
44075;BME280;60448;44.956;7.660;2023-06-14T07:20:01;98220;;;26.5;62.0
44075;BME280;60448;44.956;7.660;2023-06-14T07:25:00;98220;;;26.5;62.0
44075;BME280;60448;44.956;7.660;2023-06-14T07:30:00;98220;;;26.5;62.0
44075;BME280;60448;44.956;7.660;2023-06-14T07:35:00;98220;;;26.5;62.0
44075;BME280;60448;44.956;7.660;2023-06-14T07:40:00;98220;;;26.5;62.0
44075;BME280;60448;44.956;7.660;2023-06-14T07:45:00;98220;;;26.5;62.0
44075;BME280;60448;44.956;7.660;2023-06-14T07:50:00;98220;;;26.5;62.0
44075;BME280;60448;44.956;7.660;2023-06-14T07:55:00;98220;;;26.5;62.0
44075;BME280;60448;44.956;7.660;2023-06-14T08:00:00;98220;;;26.5;62.0
44075;BME280;60448;44.956;7.660;2023-06-14T08:05:00;98220;;;26.5;62.0
44075;BME280;60448;44.956;7.660;2023-06-14T08:10:00;98220;;;26.5;62.0
44075;BME280;60448;44.956;7.660;2023-06-14T08:15:00;98220;;;26.5;62.0
44075;BME280;60448;44.956;7.660;2023-06-14T08:20:00;98220;;;26.5;62.0
44075;BME280;60448;44.956;7.660;2023-06-14T08:25:00;98220;;;26.5;62.0
44075;BME280;60448;44.956;7.660;2023-06-14T08:30:00;98220;;;26.5;62.0
44075;BME280;60448;44.956;7.660;2023-06-14T08:35:00;98220;;;26.5;62.0
44075;BME280;60448;44.956;7.660;2023-06-14T08:40:00;98220;;;26.5;62.0
44075;BME280;60448;44.956;7.660;2023-06-14T08:45:00;98220;;;26.5;62.0
44075;BME280;60448;44.956;7.660;2023-06-14T08:50:00;98220;;;26.5;62.0
44075;BME280;60448;44.956;7.660;2023-06-14T08:55:00;98220;;;26.5;62.0
44075;BME280;60448;44.956;7.660;2023-06-14T09:00:00;98220;;;26.5;62.0
44075;BME280;60448;44.956;7.660;2023-06-14T09:05:00;98220;;;26.5;62.0
44075;BME280;60448;44.956;7.660;2023-06-14T09:10:08;98220;;;26.5;62.0
44075;BME280;60448;44.956;7.660;2023-06-14T09:15:00;98220;;;26.5;62.0
44075;BME280;60448;44.956;7.660;2023-06-14T09:20:00;98220;;;26.5;62.0
44075;BME280;60448;44.956;7.660;2023-06-14T09:25:00;98220;;;26.5;62.0
44075;BME280;60448;44.956;7.660;2023-06-14T09:30:00;98220;;;26.5;62.0
44075;BME280;60448;44.956;7.660;2023-06-14T09:35:00;98220;;;26.5;62.0
44075;BME280;60448;44.956;7.660;2023-06-14T09:40:00;98220;;;26.5;62.0
44075;BME280;60448;44.956;7.660;2023-06-14T09:45:00;98220;;;26.5;62.0
44075;BME280;60448;44.956;7.660;2023-06-14T09:50:00;98220;;;26.5;62.0
44075;BME280;60448;44.956;7.660;2023-06-14T09:55:00;98220;;;26.5;62.0
44075;BME280;60448;44.956;7.660;2023-06-14T10:00:00;98220;;;26.5;62.0
44075;BME280;60448;44.956;7.660;2023-06-14T10:05:08;98220;;;26.5;62.0
44075;BME280;60448;44.956;7.660;2023-06-14T10:10:00;98220;;;26.5;62.0
44075;BME280;60448;44.956;7.660;2023-06-14T10:15:00;98220;;;26.5;62.0
44075;BME280;60448;44.956;7.660;2023-06-14T10:25:01;98220;;;26.5;62.0
44075;BME280;60448;44.956;7.660;2023-06-14T10:30:02;98220;;;26.5;62.0
44075;BME280;60448;44.956;7.660;2023-06-14T10:35:02;98220;;;26.5;62.0
44075;BME280;60448;44.956;7.660;2023-06-14T10:40:00;98220;;;26.5;62.0
44075;BME280;60448;44.956;7.660;2023-06-14T10:45:00;98220;;;26.5;62.0
44075;BME280;60448;44.956;7.660;2023-06-14T10:50:03;98220;;;26.5;62.0
44075;BME280;60448;44.956;7.660;2023-06-14T10:55:02;98220;;;26.5;62.0
44075;BME280;60448;44.956;7.660;2023-06-14T11:00:00;98220;;;26.5;62.0
44075;BME280;60448;44.956;7.660;2023-06-14T11:05:02;98220;;;26.5;62.0
44075;BME280;60448;44.956;7.660;2023-06-14T11:10:05;98220;;;26.5;62.0
44075;BME280;60448;44.956;7.660;2023-06-14T11:15:00;98220;;;26.5;62.0
44075;BME280;60448;44.956;7.660;2023-06-14T11:20:16;98220;;;26.5;62.0
44075;BME280;60448;44.956;7.660;2023-06-14T11:25:01;98220;;;26.5;62.0
44075;BME280;60448;44.956;7.660;2023-06-14T11:30:00;98220;;;26.5;62.0
44075;BME280;60448;44.956;7.660;2023-06-14T11:35:00;98220;;;26.5;62.0
44075;BME280;60448;44.956;7.660;2023-06-14T11:40:01;98220;;;26.5;62.0
44075;BME280;60448;44.956;7.660;2023-06-14T11:45:00;98220;;;26.5;62.0
44075;BME280;60448;44.956;7.660;2023-06-14T11:50:00;98220;;;26.5;62.0
44075;BME280;60448;44.956;7.660;2023-06-14T11:55:00;98220;;;26.5;62.0
44075;BME280;60448;44.956;7.660;2023-06-14T12:00:00;98220;;;26.5;62.0
44075;BME280;60448;44.956;7.660;2023-06-14T12:05:04;98220;;;26.5;62.0
44075;BME280;60448;44.956;7.660;2023-06-14T12:15:02;98220;;;26.5;62.0
44075;BME280;60448;44.956;7.660;2023-06-14T12:20:05;98220;;;26.5;62.0
44075;BME280;60448;44.956;7.660;2023-06-14T12:25:04;98220;;;26.5;62.0
44075;BME280;60448;44.956;7.660;2023-06-14T12:30:27;98220;;;26.5;62.0
44075;BME280;60448;44.956;7.660;2023-06-14T12:35:00;98220;;;26.5;62.0
44075;BME280;60448;44.956;7.660;2023-06-14T12:40:00;98220;;;26.5;62.0
44075;BME280;60448;44.956;7.660;2023-06-14T12:45:00;98220;;;26.5;62.0
44075;BME280;60448;44.956;7.660;2023-06-14T12:50:00;98220;;;26.5;62.0
44075;BME280;60448;44.956;7.660;2023-06-14T12:55:00;98220;;;26.5;62.0
44075;BME280;60448;44.956;7.660;2023-06-14T13:00:00;98220;;;26.5;62.0
44075;BME280;60448;44.956;7.660;2023-06-14T13:05:00;98220;;;26.5;62.0
44075;BME280;60448;44.956;7.660;2023-06-14T13:10:00;98220;;;26.5;62.0
44075;BME280;60448;44.956;7.660;2023-06-14T13:15:00;98220;;;26.5;62.0
44075;BME280;60448;44.956;7.660;2023-06-14T13:20:00;98220;;;26.5;62.0
44075;BME280;60448;44.956;7.660;2023-06-14T13:25:01;98220;;;26.5;62.0
44075;BME280;60448;44.956;7.660;2023-06-14T13:30:00;98220;;;26.5;62.0
44075;BME280;60448;44.956;7.660;2023-06-14T13:35:00;98220;;;26.5;62.0
44075;BME280;60448;44.956;7.660;2023-06-14T13:40:00;98220;;;26.5;62.0
44075;BME280;60448;44.956;7.660;2023-06-14T13:45:00;98220;;;26.5;62.0
44075;BME280;60448;44.956;7.660;2023-06-14T13:50:00;98220;;;26.5;62.0
44075;BME280;60448;44.956;7.660;2023-06-14T13:55:00;98220;;;26.5;62.0
44075;BME280;60448;44.956;7.660;2023-06-14T14:00:00;98220;;;26.5;62.0
44075;BME280;60448;44.956;7.660;2023-06-14T14:05:00;98220;;;26.5;62.0
44075;BME280;60448;44.956;7.660;2023-06-14T14:10:00;98220;;;26.5;62.0
44075;BME280;60448;44.956;7.660;2023-06-14T14:15:00;98220;;;26.5;62.0
44075;BME280;60448;44.956;7.660;2023-06-14T14:20:00;98220;;;26.5;62.0
44075;BME280;60448;44.956;7.660;2023-06-14T14:25:00;98220;;;26.5;62.0
44075;BME280;60448;44.956;7.660;2023-06-14T14:30:00;98220;;;26.5;62.0
44075;BME280;60448;44.956;7.660;2023-06-14T14:35:00;98220;;;26.5;62.0
44075;BME280;60448;44.956;7.660;2023-06-14T14:40:00;98220;;;26.5;62.0
44075;BME280;60448;44.956;7.660;2023-06-14T14:45:00;98220;;;26.5;62.0
44075;BME280;60448;44.956;7.660;2023-06-14T14:50:00;98220;;;26.5;62.0
44075;BME280;60448;44.956;7.660;2023-06-14T14:55:00;98220;;;26.5;62.0
44075;BME280;60448;44.956;7.660;2023-06-14T15:00:00;98220;;;26.5;62.0
44075;BME280;60448;44.956;7.660;2023-06-14T15:05:00;98220;;;26.5;62.0
44075;BME280;60448;44.956;7.660;2023-06-14T15:10:00;98220;;;26.5;62.0
44075;BME280;60448;44.956;7.660;2023-06-14T15:15:00;98220;;;26.5;62.0
44075;BME280;60448;44.956;7.660;2023-06-14T15:20:00;98220;;;26.5;62.0
44075;BME280;60448;44.956;7.660;2023-06-14T15:25:00;98220;;;26.5;62.0
44075;BME280;60448;44.956;7.660;2023-06-14T15:30:00;98230;;;25.8;63.5
44075;BME280;60448;44.956;7.660;2023-06-14T15:35:00;98230;;;25.8;63.5
44075;BME280;60448;44.956;7.660;2023-06-14T15:40:00;98230;;;25.8;63.5
44075;BME280;60448;44.956;7.660;2023-06-14T15:45:00;98230;;;26.0;63.1
44075;BME280;60448;44.956;7.660;2023-06-14T15:50:00;98230;;;26.0;63.1
44075;BME280;60448;44.956;7.660;2023-06-14T15:55:00;98230;;;26.0;63.1
44075;BME280;60448;44.956;7.660;2023-06-14T16:00:00;98230;;;26.0;63.1
44075;BME280;60448;44.956;7.660;2023-06-14T16:05:00;98220;;;26.1;61.8
44075;BME280;60448;44.956;7.660;2023-06-14T16:10:00;98220;;;26.1;61.8
44075;BME280;60448;44.956;7.660;2023-06-14T16:15:00;98220;;;26.1;61.8
44075;BME280;60448;44.956;7.660;2023-06-14T16:20:00;98210;;;26.3;61.4
44075;BME280;60448;44.956;7.660;2023-06-14T16:25:00;98210;;;26.3;61.4
44075;BME280;60448;44.956;7.660;2023-06-14T16:30:00;98210;;;26.3;61.4
44075;BME280;60448;44.956;7.660;2023-06-14T16:35:00;98210;;;26.4;62.1
44075;BME280;60448;44.956;7.660;2023-06-14T16:40:00;98210;;;26.4;62.1
44075;BME280;60448;44.956;7.660;2023-06-14T16:45:00;98210;;;26.4;62.1
44075;BME280;60448;44.956;7.660;2023-06-14T16:50:00;98210;;;26.3;62.7
44075;BME280;60448;44.956;7.660;2023-06-14T16:55:00;98210;;;26.3;62.7
44075;BME280;60448;44.956;7.660;2023-06-14T17:00:00;98210;;;26.3;62.7
44075;BME280;60448;44.956;7.660;2023-06-14T17:05:00;98220;;;26.3;62.9
44075;BME280;60448;44.956;7.660;2023-06-14T17:10:00;98220;;;26.3;62.9
44075;BME280;60448;44.956;7.660;2023-06-14T17:15:01;98220;;;26.3;62.9
44075;BME280;60448;44.956;7.660;2023-06-14T17:20:00;98230;;;26.4;62.8
44075;BME280;60448;44.956;7.660;2023-06-14T17:25:00;98230;;;26.3;62.8
44075;BME280;60448;44.956;7.660;2023-06-14T17:30:00;98230;;;26.3;62.8
44075;BME280;60448;44.956;7.660;2023-06-14T17:35:00;98230;;;26.3;62.8
44075;BME280;60448;44.956;7.660;2023-06-14T17:40:00;98270;;;26.4;62.3
44075;BME280;60448;44.956;7.660;2023-06-14T17:45:00;98270;;;26.4;62.3
44075;BME280;60448;44.956;7.660;2023-06-14T17:50:00;98270;;;26.4;62.3
44075;BME280;60448;44.956;7.660;2023-06-14T17:55:00;98280;;;26.4;62.4
44075;BME280;60448;44.956;7.660;2023-06-14T18:00:00;98280;;;26.4;62.4
44075;BME280;60448;44.956;7.660;2023-06-14T18:05:00;98280;;;26.4;62.4
44075;BME280;60448;44.956;7.660;2023-06-14T18:10:00;98280;;;26.4;62.4
44075;BME280;60448;44.956;7.660;2023-06-14T18:15:00;98280;;;26.4;62.4
44075;BME280;60448;44.956;7.660;2023-06-14T18:20:00;98280;;;26.4;62.4
44075;BME280;60448;44.956;7.660;2023-06-14T18:25:00;98300;;;26.5;62.3
44075;BME280;60448;44.956;7.660;2023-06-14T18:30:00;98300;;;26.5;62.3
44075;BME280;60448;44.956;7.660;2023-06-14T18:35:01;98300;;;26.5;62.3
44075;BME280;60448;44.956;7.660;2023-06-14T18:40:00;98320;;;26.5;62.3
44075;BME280;60448;44.956;7.660;2023-06-14T18:45:00;98310;;;26.5;62.3
44075;BME280;60448;44.956;7.660;2023-06-14T18:50:00;98310;;;26.5;62.3
44075;BME280;60448;44.956;7.660;2023-06-14T18:55:00;98310;;;26.5;62.3
44075;BME280;60448;44.956;7.660;2023-06-14T19:00:00;98340;;;26.5;62.3
44075;BME280;60448;44.956;7.660;2023-06-14T19:05:00;98340;;;26.5;62.3
44075;BME280;60448;44.956;7.660;2023-06-14T19:10:00;98340;;;26.5;62.3
44075;BME280;60448;44.956;7.660;2023-06-14T19:15:00;98340;;;26.5;62.3
44075;BME280;60448;44.956;7.660;2023-06-14T19:20:00;98340;;;26.5;62.3
44075;BME280;60448;44.956;7.660;2023-06-14T19:25:00;98340;;;26.5;62.3
44075;BME280;60448;44.956;7.660;2023-06-14T19:30:00;98360;;;26.5;62.2
44075;BME280;60448;44.956;7.660;2023-06-14T19:35:02;98360;;;26.5;62.2
44075;BME280;60448;44.956;7.660;2023-06-14T19:40:00;98360;;;26.5;62.2
44075;BME280;60448;44.956;7.660;2023-06-14T19:45:00;98380;;;26.5;62.2
44075;BME280;60448;44.956;7.660;2023-06-14T19:50:00;98380;;;26.5;62.2
44075;BME280;60448;44.956;7.660;2023-06-14T19:55:00;98380;;;26.5;62.2
44075;BME280;60448;44.956;7.660;2023-06-14T20:00:00;98390;;;26.6;62.1
44075;BME280;60448;44.956;7.660;2023-06-14T20:05:00;98390;;;26.6;62.1
44075;BME280;60448;44.956;7.660;2023-06-14T20:10:00;98390;;;26.6;62.1
44075;BME280;60448;44.956;7.660;2023-06-14T20:15:00;98390;;;26.6;62.1
44075;BME280;60448;44.956;7.660;2023-06-14T20:20:00;98410;;;26.6;61.9
44075;BME280;60448;44.956;7.660;2023-06-14T20:25:00;98410;;;26.6;61.9
44075;BME280;60448;44.956;7.660;2023-06-14T20:30:00;98410;;;26.6;61.9
44075;BME280;60448;44.956;7.660;2023-06-14T20:35:00;98420;;;26.6;62.0
44075;BME280;60448;44.956;7.660;2023-06-14T20:40:00;98420;;;26.6;62.0
44075;BME280;60448;44.956;7.660;2023-06-14T20:45:00;98420;;;26.6;62.0
44075;BME280;60448;44.956;7.660;2023-06-14T20:50:00;98420;;;26.6;62.1
44075;BME280;60448;44.956;7.660;2023-06-14T20:55:00;98420;;;26.6;62.1
44075;BME280;60448;44.956;7.660;2023-06-14T21:00:00;98420;;;26.6;62.1
44075;BME280;60448;44.956;7.660;2023-06-14T21:05:00;98430;;;26.6;62.1
44075;BME280;60448;44.956;7.660;2023-06-14T21:10:00;98430;;;26.6;62.1
44075;BME280;60448;44.956;7.660;2023-06-14T21:15:00;98430;;;26.6;62.1
44075;BME280;60448;44.956;7.660;2023-06-14T21:20:00;98440;;;26.6;62.2
44075;BME280;60448;44.956;7.660;2023-06-14T21:25:00;98440;;;26.6;62.2
44075;BME280;60448;44.956;7.660;2023-06-14T21:30:00;98440;;;26.6;62.2
44075;BME280;60448;44.956;7.660;2023-06-14T21:35:01;98430;;;26.7;62.0
44075;BME280;60448;44.956;7.660;2023-06-14T21:40:00;98430;;;26.6;62.2
44075;BME280;60448;44.956;7.660;2023-06-14T21:45:00;98430;;;26.6;62.2
44075;BME280;60448;44.956;7.660;2023-06-14T21:50:00;98430;;;26.7;62.3
44075;BME280;60448;44.956;7.660;2023-06-14T21:55:00;98430;;;26.6;62.3
44075;BME280;60448;44.956;7.660;2023-06-14T22:00:00;98430;;;26.6;62.3
44075;BME280;60448;44.956;7.660;2023-06-14T22:05:00;98430;;;26.6;62.3
44075;BME280;60448;44.956;7.660;2023-06-14T22:10:00;98440;;;26.6;62.4
44075;BME280;60448;44.956;7.660;2023-06-14T22:15:00;98440;;;26.6;62.4
44075;BME280;60448;44.956;7.660;2023-06-14T22:20:00;98440;;;26.6;62.4
44075;BME280;60448;44.956;7.660;2023-06-14T22:25:00;98440;;;26.6;62.3
44075;BME280;60448;44.956;7.660;2023-06-14T22:30:00;98440;;;26.6;62.3
44075;BME280;60448;44.956;7.660;2023-06-14T22:35:00;98440;;;26.6;62.3
44075;BME280;60448;44.956;7.660;2023-06-14T22:40:00;98460;;;26.6;62.3
44075;BME280;60448;44.956;7.660;2023-06-14T22:45:01;98460;;;26.6;62.3
44075;BME280;60448;44.956;7.660;2023-06-14T22:50:00;98460;;;26.6;62.3
44075;BME280;60448;44.956;7.660;2023-06-14T22:55:00;98490;;;26.6;62.3
44075;BME280;60448;44.956;7.660;2023-06-14T23:00:00;98480;;;26.5;62.4
44075;BME280;60448;44.956;7.660;2023-06-14T23:05:00;98480;;;26.5;62.4
44075;BME280;60448;44.956;7.660;2023-06-14T23:10:01;98480;;;26.5;62.4
44075;BME280;60448;44.956;7.660;2023-06-14T23:15:00;98480;;;26.5;62.4
44075;BME280;60448;44.956;7.660;2023-06-14T23:20:01;98480;;;26.5;62.4
44075;BME280;60448;44.956;7.660;2023-06-14T23:25:02;98480;;;26.5;62.4
44075;BME280;60448;44.956;7.660;2023-06-14T23:30:01;98480;;;26.5;62.4
44075;BME280;60448;44.956;7.660;2023-06-14T23:35:01;98480;;;26.5;62.4
44075;BME280;60448;44.956;7.660;2023-06-14T23:40:00;98480;;;26.5;62.4
44075;BME280;60448;44.956;7.660;2023-06-14T23:45:00;98480;;;26.5;62.4
44075;BME280;60448;44.956;7.660;2023-06-14T23:50:00;98480;;;26.5;62.4
44075;BME280;60448;44.956;7.660;2023-06-14T23:55:00;98480;;;26.5;62.4
